createdAt,value
2018-09-20T00:07:22.866Z,100460.56
2018-09-20T00:09:57.220Z,100459.70
2018-09-20T00:12:25.552Z,100461.39
2018-09-20T00:14:54.321Z,100459.25
2018-09-20T00:17:22.588Z,100462.38
2018-09-20T00:19:51.439Z,100454.22
2018-09-20T00:22:19.974Z,100451.29
2018-09-20T00:24:48.436Z,100454.61
2018-09-20T00:27:16.570Z,100452.40
2018-09-20T00:29:44.998Z,100448.13
2018-09-20T00:32:13.263Z,100451.68
2018-09-20T00:34:41.407Z,100443.41
2018-09-20T00:37:09.629Z,100438.17
2018-09-20T00:39:37.801Z,100437.84
2018-09-20T00:42:06.024Z,100436.08
2018-09-20T00:44:34.697Z,100439.25
2018-09-20T00:47:03.349Z,100436.20
2018-09-20T00:49:31.844Z,100436.24
2018-09-20T00:52:00.117Z,100433.21
2018-09-20T00:54:28.623Z,100437.94
2018-09-20T00:56:56.840Z,100437.55
2018-09-20T00:59:25.038Z,100443.64
2018-09-20T01:01:53.327Z,100447.13
2018-09-20T01:04:23.081Z,100440.66
2018-09-20T01:06:52.079Z,100440.25
2018-09-20T01:09:20.383Z,100439.35
2018-09-20T01:11:48.911Z,100448.42
2018-09-20T01:14:17.248Z,100441.55
2018-09-20T01:16:45.364Z,100441.95
2018-09-20T01:19:13.516Z,100441.06
2018-09-20T01:21:41.695Z,100436.80
2018-09-20T01:24:09.816Z,100441.59
2018-09-20T01:26:37.954Z,100439.47
2018-09-20T01:29:06.187Z,100441.63
2018-09-20T01:31:34.536Z,100439.47
2018-09-20T01:34:02.754Z,100443.37
2018-09-20T01:36:30.899Z,100439.44
2018-09-20T01:39:00.043Z,100439.91
2018-09-20T01:41:28.233Z,100441.63
2018-09-20T01:43:56.435Z,100436.48
2018-09-20T01:46:24.630Z,100431.67
2018-09-20T01:48:52.912Z,100431.70
2018-09-20T01:51:21.468Z,100431.26
2018-09-20T01:53:49.598Z,100431.70
2018-09-20T01:56:17.761Z,100433.00
2018-09-20T01:58:46.692Z,100428.21
2018-09-20T02:01:14.846Z,100425.23
2018-09-20T02:03:43.744Z,100429.56
2018-09-20T02:06:12.735Z,100433.92
2018-09-20T02:08:42.960Z,100427.44
2018-09-20T02:11:11.719Z,100434.80
2018-09-20T02:13:39.881Z,100430.94
2018-09-20T02:16:08.734Z,100430.45
2018-09-20T02:18:36.908Z,100429.18
2018-09-20T02:21:05.232Z,100426.13
2018-09-20T02:23:34.327Z,100429.16
2018-09-20T02:26:02.463Z,100434.80
2018-09-20T02:28:30.631Z,100433.07
2018-09-20T02:31:00.930Z,100439.14
2018-09-20T02:33:29.350Z,100434.78
2018-09-20T02:35:57.723Z,100436.07
2018-09-20T02:38:25.970Z,100435.67
2018-09-20T02:40:54.164Z,100438.28
2018-09-20T02:43:23.667Z,100437.41
2018-09-20T02:45:51.833Z,100443.48
2018-09-20T02:48:19.984Z,100446.06
2018-09-20T02:50:48.167Z,100438.27
2018-09-20T02:53:16.384Z,100442.19
2018-09-20T02:55:44.640Z,100440.44
2018-09-20T02:58:14.552Z,100439.16
2018-09-20T03:00:42.723Z,100433.08
2018-09-20T03:03:11.811Z,100439.58
2018-09-20T03:05:39.987Z,100445.63
2018-09-20T03:08:08.168Z,100438.72
2018-09-20T03:10:36.336Z,100441.74
2018-09-20T03:13:04.544Z,100446.91
2018-09-20T03:15:34.384Z,100442.48
2018-09-20T03:18:02.948Z,100440.72
2018-09-20T03:20:31.139Z,100444.55
2018-09-20T03:22:59.872Z,100448.39
2018-09-20T03:25:28.070Z,100446.73
2018-09-20T03:27:58.511Z,100444.89
2018-09-20T03:30:26.653Z,100445.30
2018-09-20T03:32:54.845Z,100442.77
2018-09-20T03:35:23.186Z,100444.46
2018-09-20T03:37:51.606Z,100450.03
2018-09-20T03:40:19.828Z,100446.84
2018-09-20T03:42:47.995Z,100449.89
2018-09-20T03:45:16.147Z,100440.86
2018-09-20T03:47:44.417Z,100443.11
2018-09-20T03:50:12.643Z,100445.78
2018-09-20T03:52:40.845Z,100447.03
2018-09-20T03:55:09.339Z,100452.13
2018-09-20T03:57:37.604Z,100446.51
2018-09-20T04:00:05.863Z,100449.83
2018-09-20T04:02:34.299Z,100451.09
2018-09-20T04:05:02.505Z,100456.48
2018-09-20T04:07:30.677Z,100450.80
2018-09-20T04:09:58.902Z,100457.48
2018-09-20T04:12:27.175Z,100448.55
2018-09-20T04:14:55.366Z,100456.99
2018-09-20T04:17:23.640Z,100451.01
2018-09-20T04:19:51.803Z,100456.47
2018-09-20T04:22:20.058Z,100458.60
2018-09-20T04:24:49.270Z,100454.08
2018-09-20T04:27:17.615Z,100459.88
2018-09-20T04:29:45.879Z,100451.06
2018-09-20T04:32:16.020Z,100459.73
2018-09-20T04:34:44.803Z,100446.63
2018-09-20T04:37:12.983Z,100451.00
2018-09-20T04:39:41.282Z,100451.17
2018-09-20T04:42:10.287Z,100454.94
2018-09-20T04:44:38.786Z,100452.83
2018-09-20T04:47:08.344Z,100453.00
2018-09-20T04:49:36.845Z,100456.81
2018-09-20T04:52:05.236Z,100457.20
2018-09-20T04:54:33.338Z,100460.63
2018-09-20T04:57:01.526Z,100463.20
2018-09-20T04:59:29.594Z,100464.41
2018-09-20T05:01:57.689Z,100465.81
2018-09-20T05:04:28.150Z,100462.38
2018-09-20T05:06:56.311Z,100466.64
2018-09-20T05:09:24.573Z,100468.48
2018-09-20T05:11:56.838Z,100461.03
2018-09-20T05:14:25.017Z,100466.75
2018-09-20T05:16:53.208Z,100472.55
2018-09-20T05:19:21.372Z,100474.73
2018-09-20T05:21:49.538Z,100477.30
2018-09-20T05:24:18.042Z,100475.08
2018-09-20T05:26:46.252Z,100478.49
2018-09-20T05:29:15.218Z,100478.00
2018-09-20T05:31:43.433Z,100475.39
2018-09-20T05:34:13.112Z,100473.89
2018-09-20T05:36:41.297Z,100475.80
2018-09-20T05:39:10.415Z,100476.72
2018-09-20T05:41:38.749Z,100478.81
2018-09-20T05:44:07.941Z,100480.59
2018-09-20T05:46:36.317Z,100474.43
2018-09-20T05:49:04.972Z,100469.56
2018-09-20T05:51:33.211Z,100471.78
2018-09-20T05:54:01.458Z,100473.16
2018-09-20T05:56:29.705Z,100477.16
2018-09-20T05:58:58.039Z,100480.27
2018-09-20T06:01:28.157Z,100472.78
2018-09-20T06:03:56.495Z,100479.81
2018-09-20T06:06:26.328Z,100473.53
2018-09-20T06:08:54.572Z,100480.84
2018-09-20T06:11:22.878Z,100470.23
2018-09-20T06:13:51.376Z,100480.20
2018-09-20T06:16:19.857Z,100476.56
2018-09-20T06:18:48.989Z,100485.77
2018-09-20T06:21:17.383Z,100474.83
2018-09-20T06:23:45.485Z,100476.56
2018-09-20T06:26:13.625Z,100473.89
2018-09-20T06:28:42.349Z,100478.32
2018-09-20T06:31:10.434Z,100471.59
2018-09-20T06:33:38.655Z,100473.47
2018-09-20T06:36:07.271Z,100480.61
2018-09-20T06:38:37.019Z,100496.30
2018-09-20T06:41:05.367Z,100490.87
2018-09-20T06:43:34.096Z,100484.31
2018-09-20T06:46:02.244Z,100492.41
2018-09-20T06:48:30.382Z,100494.96
2018-09-20T06:51:00.179Z,100502.13
2018-09-20T06:53:28.285Z,100501.63
2018-09-20T06:55:57.706Z,100503.27
2018-09-20T06:58:27.789Z,100517.27
2018-09-20T07:00:55.940Z,100497.73
2018-09-20T07:03:24.957Z,100508.45
2018-09-20T07:05:55.647Z,100503.44
2018-09-20T07:08:23.803Z,100501.03
2018-09-20T07:10:51.952Z,100501.30
2018-09-20T07:13:21.286Z,100507.59
2018-09-20T07:15:49.620Z,100500.61
2018-09-20T07:18:17.886Z,100503.08
2018-09-20T07:20:46.055Z,100506.93
2018-09-20T07:23:14.151Z,100504.83
2018-09-20T07:25:43.723Z,100510.89
2018-09-20T07:28:13.147Z,100514.03
2018-09-20T07:30:42.837Z,100517.39
2018-09-20T07:33:11.218Z,100515.30
2018-09-20T07:35:39.428Z,100517.63
2018-09-20T07:38:07.624Z,100515.27
2018-09-20T07:40:35.795Z,100522.44
2018-09-20T07:43:03.953Z,100519.88
2018-09-20T07:45:32.207Z,100526.48
2018-09-20T07:48:00.685Z,100521.67
2018-09-20T07:50:29.938Z,100524.39
2018-09-20T07:52:58.480Z,100509.95
2018-09-20T07:55:26.800Z,100525.17
2018-09-20T07:57:54.971Z,100529.07
2018-09-20T08:00:23.871Z,100523.47
2018-09-20T08:02:54.021Z,100526.50
2018-09-20T08:05:22.111Z,100524.39
2018-09-20T08:07:51.544Z,100521.36
2018-09-20T08:10:20.208Z,100522.71
2018-09-20T08:12:48.497Z,100522.27
2018-09-20T08:15:17.284Z,100530.05
2018-09-20T08:17:45.802Z,100524.84
2018-09-20T08:20:14.673Z,100520.11
2018-09-20T08:22:43.412Z,100525.75
2018-09-20T08:25:12.944Z,100530.06
2018-09-20T08:27:41.151Z,100530.07
2018-09-20T08:30:09.302Z,100528.77
2018-09-20T08:32:39.027Z,100533.13
2018-09-20T08:35:07.184Z,100523.98
2018-09-20T08:37:35.565Z,100514.46
2018-09-20T08:40:03.637Z,100520.06
2018-09-20T08:42:33.165Z,100519.64
2018-09-20T08:45:01.341Z,100523.98
2018-09-20T08:47:30.462Z,100520.47
2018-09-20T08:49:58.586Z,100524.81
2018-09-20T08:52:26.766Z,100520.86
2018-09-20T08:54:55.028Z,100521.72
2018-09-20T08:57:23.942Z,100519.96
2018-09-20T08:59:52.166Z,100525.98
2018-09-20T09:02:20.307Z,100517.72
2018-09-20T09:04:48.536Z,100519.78
2018-09-20T09:07:17.612Z,100524.14
2018-09-20T09:09:46.863Z,100525.89
2018-09-20T09:12:15.088Z,100520.52
2018-09-20T09:14:44.764Z,100515.76
2018-09-20T09:17:13.676Z,100518.03
2018-09-20T09:19:42.554Z,100510.11
2018-09-20T09:22:12.387Z,100515.66
2018-09-20T09:24:40.639Z,100514.16
2018-09-20T09:27:10.343Z,100510.14
2018-09-20T09:29:38.725Z,100515.92
2018-09-20T09:32:07.000Z,100504.51
2018-09-20T09:34:35.912Z,100505.84
2018-09-20T09:37:04.109Z,100511.91
2018-09-20T09:39:32.644Z,100505.55
2018-09-20T09:42:01.125Z,100520.22
2018-09-20T09:44:29.300Z,100501.77
2018-09-20T09:46:57.627Z,100499.30
2018-09-20T09:49:25.760Z,100494.22
2018-09-20T09:51:54.477Z,100487.30
2018-09-20T09:54:23.088Z,100488.03
2018-09-20T09:56:51.216Z,100483.21
2018-09-20T09:59:19.745Z,100478.50
2018-09-20T10:01:48.080Z,100474.30
2018-09-20T10:04:16.588Z,100469.07
2018-09-20T10:06:44.736Z,100474.30
2018-09-20T10:09:16.008Z,100466.36
2018-09-20T10:11:44.288Z,100467.52
2018-09-20T10:14:12.484Z,100459.81
2018-09-20T10:16:40.737Z,100471.52
2018-09-20T10:19:09.036Z,100456.23
2018-09-20T10:21:37.356Z,100453.71
2018-09-20T10:24:09.188Z,100445.95
2018-09-20T10:26:37.269Z,100446.91
2018-09-20T10:29:06.630Z,100443.64
2018-09-20T10:31:34.867Z,100451.71
2018-09-20T10:34:02.977Z,100440.57
2018-09-20T10:36:31.008Z,100452.14
2018-09-20T10:38:59.240Z,100446.26
2018-09-20T10:41:27.505Z,100428.78
2018-09-20T10:43:55.824Z,100431.70
2018-09-20T10:46:24.174Z,100424.33
2018-09-20T10:48:52.835Z,100413.37
2018-09-20T10:51:21.495Z,100424.67
2018-09-20T10:53:49.569Z,100409.83
2018-09-20T10:56:17.646Z,100415.67
2018-09-20T10:58:46.070Z,100412.50
2018-09-20T11:01:15.467Z,100404.54
2018-09-20T11:03:43.937Z,100401.02
2018-09-20T11:06:12.097Z,100406.72
2018-09-20T11:08:40.192Z,100393.42
2018-09-20T11:11:08.399Z,100400.34
2018-09-20T11:13:37.163Z,100394.27
2018-09-20T11:16:07.220Z,100392.15
2018-09-20T11:18:35.695Z,100380.36
2018-09-20T11:21:04.544Z,100386.81
2018-09-20T11:23:34.079Z,100364.87
2018-09-20T11:26:02.605Z,100372.13
2018-09-20T11:28:30.731Z,100364.19
2018-09-20T11:30:59.168Z,100362.48
2018-09-20T11:33:27.495Z,100360.04
2018-09-20T11:35:55.639Z,100366.70
2018-09-20T11:38:23.807Z,100351.29
2018-09-20T11:40:52.260Z,100347.42
2018-09-20T11:43:21.374Z,100357.04
2018-09-20T11:45:49.787Z,100350.02
2018-09-20T11:48:18.271Z,100344.55
2018-09-20T11:50:46.447Z,100335.39
2018-09-20T11:53:14.797Z,100351.08
2018-09-20T11:55:45.129Z,100339.33
2018-09-20T11:58:14.266Z,100332.13
2018-09-20T12:00:42.834Z,100323.27
2018-09-20T12:03:11.206Z,100334.31
2018-09-20T12:05:39.990Z,100326.89
2018-09-20T12:08:08.169Z,100323.91
2018-09-20T12:10:36.337Z,100310.44
2018-09-20T12:13:04.469Z,100303.14
2018-09-20T12:15:32.733Z,100310.16
2018-09-20T12:18:01.613Z,100296.47
2018-09-20T12:20:30.989Z,100294.31
2018-09-20T12:23:01.391Z,100280.61
2018-09-20T12:25:29.487Z,100289.02
2018-09-20T12:27:58.072Z,100280.36
2018-09-20T12:30:26.754Z,100279.81
2018-09-20T12:32:55.016Z,100280.08
2018-09-20T12:35:23.196Z,100272.33
2018-09-20T12:37:51.300Z,100267.61
2018-09-20T12:40:19.447Z,100248.43
2018-09-20T12:42:47.684Z,100261.99
2018-09-20T12:45:16.162Z,100264.75
2018-09-20T12:47:44.614Z,100245.09
2018-09-20T12:50:12.939Z,100238.31
2018-09-20T12:52:41.729Z,100227.92
2018-09-20T12:55:09.861Z,100240.76
2018-09-20T12:57:38.746Z,100240.10
2018-09-20T13:00:08.876Z,100221.52
2018-09-20T13:02:37.021Z,100220.83
2018-09-20T13:05:05.579Z,100236.84
2018-09-20T13:07:33.825Z,100220.52
2018-09-20T13:10:02.576Z,100217.54
2018-09-20T13:12:30.766Z,100215.68
2018-09-20T13:14:58.980Z,100215.62
2018-09-20T13:17:27.315Z,100232.33
2018-09-20T13:19:55.495Z,100203.00
2018-09-20T13:22:23.660Z,100203.53
2018-09-20T13:24:52.109Z,100186.28
2018-09-20T13:27:20.270Z,100182.52
2018-09-20T13:29:48.564Z,100196.91
2018-09-20T13:32:17.960Z,100195.13
2018-09-20T13:34:46.499Z,100183.73
2018-09-20T13:37:14.738Z,100179.73
2018-09-20T13:39:43.084Z,100177.15
2018-09-20T13:42:31.243Z,100186.58
2018-09-20T13:45:17.338Z,100187.20
2018-09-20T13:47:48.743Z,100186.28
2018-09-20T13:50:17.215Z,100169.23
2018-09-20T13:52:45.386Z,100175.80
2018-09-20T13:55:13.591Z,100174.23
2018-09-20T13:57:42.001Z,100165.77
2018-09-20T14:00:10.587Z,100161.42
2018-09-20T14:02:39.099Z,100151.73
2018-09-20T14:05:07.347Z,100154.78
2018-09-20T14:07:35.729Z,100145.86
2018-09-20T14:10:03.851Z,100156.67
2018-09-20T14:12:32.561Z,100145.68
2018-09-20T14:15:05.593Z,100146.19
2018-09-20T14:17:44.726Z,100151.27
2018-09-20T14:20:14.769Z,100137.83
2018-09-20T14:22:43.471Z,100145.94
2018-09-20T14:25:11.987Z,100128.69
2018-09-20T14:27:40.562Z,100140.39
2018-09-20T14:30:08.948Z,100146.02
2018-09-20T14:32:37.096Z,100126.95
2018-09-20T14:35:05.461Z,100122.42
2018-09-20T14:37:33.681Z,100136.38
2018-09-20T14:40:02.214Z,100118.03
2018-09-20T14:42:30.634Z,100113.67
2018-09-20T14:44:58.909Z,100108.92
2018-09-20T14:47:27.210Z,100113.68
2018-09-20T14:49:55.502Z,100101.71
2018-09-20T14:52:24.598Z,100098.53
2018-09-20T14:54:52.877Z,100099.39
2018-09-20T14:57:21.735Z,100105.13
2018-09-20T14:59:49.952Z,100098.66
2018-09-20T15:02:18.117Z,100096.11
2018-09-20T15:04:46.296Z,100091.95
2018-09-20T15:07:15.532Z,100092.31
2018-09-20T15:09:43.767Z,100094.37
2018-09-20T15:12:12.405Z,100093.95
2018-09-20T15:14:47.663Z,100095.25
2018-09-20T15:17:16.230Z,100089.55
2018-09-20T15:19:45.259Z,100081.04
2018-09-20T15:22:14.413Z,100095.59
2018-09-20T15:24:43.523Z,100078.88
2018-09-20T15:27:12.094Z,100076.92
2018-09-20T15:29:40.422Z,100086.28
2018-09-20T15:32:08.806Z,100073.97
2018-09-20T15:34:37.592Z,100072.19
2018-09-20T15:37:05.796Z,100068.44
2018-09-20T15:39:34.080Z,100069.71
2018-09-20T15:42:02.396Z,100065.88
2018-09-20T15:44:30.563Z,100069.95
2018-09-20T15:46:58.695Z,100070.83
2018-09-20T15:49:27.204Z,100061.42
2018-09-20T15:51:55.391Z,100066.48
2018-09-20T15:54:25.259Z,100059.87
2018-09-20T15:56:53.551Z,100070.05
2018-09-20T15:59:21.762Z,100061.14
2018-09-20T16:01:50.004Z,100052.48
2018-09-20T16:04:18.372Z,100053.16
2018-09-20T16:06:46.991Z,100057.48
2018-09-20T16:09:15.417Z,100047.84
2018-09-20T16:11:43.536Z,100052.69
2018-09-20T16:14:11.784Z,100051.38
2018-09-20T16:16:40.394Z,100057.65
2018-09-20T16:19:08.972Z,100047.59
2018-09-20T16:21:37.186Z,100046.41
2018-09-20T16:24:06.246Z,100050.09
2018-09-20T16:26:34.603Z,100042.38
2018-09-20T16:30:10.922Z,100040.41
2018-09-20T16:34:52.648Z,100039.24
2018-09-20T16:37:28.914Z,100035.64
2018-09-20T16:39:57.937Z,100033.64
2018-09-20T16:42:26.955Z,100031.98
2018-09-20T16:44:55.114Z,100030.66
2018-09-20T16:47:24.107Z,100026.84
2018-09-20T16:49:52.289Z,100023.16
2018-09-20T16:52:20.533Z,100019.61
2018-09-20T16:54:49.543Z,100019.53
2018-09-20T16:57:19.111Z,100024.64
2018-09-20T16:59:47.514Z,100024.48
2018-09-20T17:02:15.902Z,100026.48
2018-09-20T17:04:45.004Z,100026.86
2018-09-20T17:07:14.700Z,100028.58
2018-09-20T17:09:42.852Z,100024.81
2018-09-20T17:12:12.075Z,100018.27
2018-09-20T17:14:40.349Z,100027.07
2018-09-20T17:17:08.804Z,100019.55
2018-09-20T17:19:38.564Z,100020.67
2018-09-20T17:22:08.062Z,100024.97
2018-09-20T17:24:36.248Z,100022.84
2018-09-20T17:27:05.966Z,100034.76
2018-09-20T17:29:34.199Z,100029.83
2018-09-20T17:32:02.558Z,100027.67
2018-09-20T17:34:31.291Z,100028.44
2018-09-20T17:37:00.500Z,100028.23
2018-09-20T17:39:29.766Z,100027.60
2018-09-20T17:41:58.650Z,100022.55
2018-09-20T17:44:27.471Z,100026.45
2018-09-20T17:46:57.499Z,100025.50
2018-09-20T17:49:26.963Z,100019.55
2018-09-20T17:51:55.297Z,100026.89
2018-09-20T17:54:24.415Z,100027.04
2018-09-20T17:56:53.150Z,100022.88
2018-09-20T17:59:22.143Z,100025.34
2018-09-20T18:01:50.568Z,100026.38
2018-09-20T18:04:19.037Z,100018.89
2018-09-20T18:06:47.313Z,100017.72
2018-09-20T18:09:17.532Z,100020.11
2018-09-20T18:11:46.051Z,100019.74
2018-09-20T18:14:14.227Z,100019.73
2018-09-20T18:16:42.640Z,100020.34
2018-09-20T18:19:10.875Z,100011.44
2018-09-20T18:21:39.103Z,100019.22
2018-09-20T18:24:08.350Z,100020.56
2018-09-20T18:26:36.632Z,100015.08
2018-09-20T18:29:05.676Z,100019.55
2018-09-20T18:31:38.297Z,100019.95
2018-09-20T18:34:06.932Z,100016.45
2018-09-20T18:36:36.107Z,100018.77
2018-09-20T18:39:13.195Z,100020.42
2018-09-20T18:41:42.788Z,100016.19
2018-09-20T18:44:12.287Z,100022.96
2018-09-20T18:46:40.484Z,100016.28
2018-09-20T18:49:08.844Z,100015.06
2018-09-20T18:51:37.407Z,100014.95
2018-09-20T18:54:05.617Z,100012.20
2018-09-20T18:56:33.769Z,100020.19
2018-09-20T18:59:03.194Z,100018.61
2018-09-20T19:01:31.332Z,100017.83
2018-09-20T19:03:59.491Z,100018.03
2018-09-20T19:06:27.871Z,100017.30
2018-09-20T19:08:56.508Z,100013.29
2018-09-20T19:11:25.038Z,100018.03
2018-09-20T19:13:53.308Z,100004.15
2018-09-20T19:16:21.540Z,100009.66
2018-09-20T19:18:49.683Z,100010.59
2018-09-20T19:21:18.423Z,100010.91
2018-09-20T19:23:46.640Z,100004.72
2018-09-20T19:26:14.982Z,99998.00
2018-09-20T19:28:44.918Z,99998.08
2018-09-20T19:31:13.307Z,99996.70
2018-09-20T19:33:42.126Z,99991.01
2018-09-20T19:36:12.167Z,99996.16
2018-09-20T19:38:40.351Z,99982.61
2018-09-20T19:41:08.523Z,99986.73
2018-09-20T19:43:40.631Z,99983.91
2018-09-20T19:46:08.806Z,99983.69
2018-09-20T19:48:36.904Z,99983.36
2018-09-20T19:51:06.391Z,99974.80
2018-09-20T19:53:34.602Z,99974.41
2018-09-20T19:56:02.961Z,99972.16
2018-09-20T19:58:31.986Z,99970.59
2018-09-20T20:01:00.763Z,99963.96
2018-09-20T20:03:28.948Z,99967.81
2018-09-20T20:05:57.215Z,99961.64
2018-09-20T20:08:25.390Z,99963.98
2018-09-20T20:10:53.927Z,99957.73
2018-09-20T20:13:22.219Z,99961.84
2018-09-20T20:15:50.955Z,99959.02
2018-09-20T20:18:20.758Z,99956.70
2018-09-20T20:20:49.111Z,99954.64
2018-09-20T20:23:18.999Z,99954.67
2018-09-20T20:25:47.215Z,99949.78
2018-09-20T20:28:16.517Z,99948.59
2018-09-20T20:30:45.763Z,99946.75
2018-09-20T20:33:18.291Z,99940.86
2018-09-20T20:35:46.867Z,99938.77
2018-09-20T20:38:15.091Z,99936.21
2018-09-20T20:40:44.556Z,99939.64
2018-09-20T20:43:13.132Z,99939.64
2018-09-20T20:45:43.636Z,99935.33
2018-09-20T20:48:15.425Z,99940.22
2018-09-20T20:50:44.054Z,99933.47
2018-09-20T20:53:12.807Z,99933.78
2018-09-20T20:55:40.967Z,99929.64
2018-09-20T20:58:09.731Z,99923.14
2018-09-20T21:00:37.996Z,99934.50
2018-09-20T21:03:06.809Z,99928.31
2018-09-20T21:05:34.951Z,99931.94
2018-09-20T21:08:03.650Z,99925.36
2018-09-20T21:10:31.861Z,99926.58
2018-09-20T21:13:00.018Z,99922.05
2018-09-20T21:15:28.876Z,99920.11
2018-09-20T21:17:57.195Z,99921.76
2018-09-20T21:20:25.391Z,99918.50
2018-09-20T21:22:53.716Z,99912.17
2018-09-20T21:25:22.061Z,99912.20
2018-09-20T21:27:50.278Z,99908.69
2018-09-20T21:30:18.471Z,99910.87
2018-09-20T21:32:46.801Z,99907.75
2018-09-20T21:35:14.974Z,99910.02
2018-09-20T21:37:43.124Z,99896.23
2018-09-20T21:40:11.247Z,99894.66
2018-09-20T21:42:39.423Z,99893.86
2018-09-20T21:45:08.611Z,99890.32
2018-09-20T21:47:36.788Z,99879.63
2018-09-20T21:50:04.986Z,99883.23
2018-09-20T21:52:33.289Z,99882.61
2018-09-20T21:55:01.611Z,99879.66
2018-09-20T21:57:29.913Z,99872.92
2018-09-20T21:59:58.185Z,99873.42
2018-09-20T22:02:32.072Z,99874.78
2018-09-20T22:05:00.227Z,99876.12
2018-09-20T22:07:29.597Z,99865.83
2018-09-20T22:09:57.787Z,99870.91
2018-09-20T22:12:26.013Z,99865.25
2018-09-20T22:14:54.739Z,99859.99
2018-09-20T22:17:22.856Z,99863.08
2018-09-20T22:19:51.047Z,99860.17
2018-09-20T22:22:19.155Z,99852.09
2018-09-20T22:24:47.505Z,99857.89
2018-09-20T22:27:15.817Z,99850.29
2018-09-20T22:29:44.110Z,99854.27
2018-09-20T22:32:12.218Z,99848.73
2018-09-20T22:34:42.471Z,99835.86
2018-09-20T22:37:11.219Z,99841.23
2018-09-20T22:39:39.363Z,99840.45
2018-09-20T22:42:07.614Z,99839.28
2018-09-20T22:44:35.784Z,99832.62
2018-09-20T22:47:04.018Z,99835.86
2018-09-20T22:49:32.946Z,99832.20
2018-09-20T22:52:01.595Z,99824.53
2018-09-20T22:54:30.077Z,99822.76
2018-09-20T22:56:58.356Z,99816.06
2018-09-20T22:59:27.202Z,99820.05
2018-09-20T23:01:57.063Z,99824.42
2018-09-20T23:04:26.638Z,99822.10
2018-09-20T23:06:55.131Z,99820.84
2018-09-20T23:09:24.336Z,99812.44
2018-09-20T23:11:52.466Z,99817.27
2018-09-20T23:14:20.584Z,99811.76
2018-09-20T23:16:48.840Z,99812.14
2018-09-20T23:19:20.964Z,99812.67
2018-09-20T23:21:49.562Z,99818.26
2018-09-20T23:24:17.769Z,99819.20
2018-09-20T23:26:46.128Z,99810.49
2018-09-20T23:29:16.040Z,99808.41
2018-09-20T23:31:44.344Z,99807.16
2018-09-20T23:34:12.440Z,99792.16
2018-09-20T23:36:40.573Z,99796.40
2018-09-20T23:39:11.098Z,99798.05
2018-09-20T23:41:39.350Z,99792.92
2018-09-20T23:44:08.000Z,99792.63
2018-09-20T23:46:36.269Z,99788.28
2018-09-20T23:49:04.541Z,99787.52
2018-09-20T23:51:32.943Z,99780.97
2018-09-20T23:54:01.591Z,99787.64
2018-09-20T23:56:29.891Z,99780.93
2018-09-20T23:58:58.298Z,99782.58
